createdAt,value
2022-09-01T04:00:42.381Z,61.46
2022-09-01T04:04:52.563Z,61.42
2022-09-01T04:09:02.553Z,61.93
2022-09-01T04:13:11.658Z,62.35
2022-09-01T04:17:34.697Z,62.88
2022-09-01T04:21:38.256Z,62.60
2022-09-01T04:25:41.552Z,62.77
2022-09-01T04:29:46.736Z,62.60
2022-09-01T04:33:53.634Z,61.77
2022-09-01T04:37:57.409Z,61.86
2022-09-01T04:41:59.984Z,62.10
2022-09-01T04:46:03.275Z,61.55
2022-09-01T04:50:13.886Z,61.37
2022-09-01T04:54:19.642Z,61.79
2022-09-01T04:58:22.964Z,62.48
2022-09-01T05:02:28.121Z,62.42
2022-09-01T05:06:33.847Z,61.76
2022-09-01T05:10:42.148Z,61.34
2022-09-01T05:14:53.992Z,60.80
2022-09-01T05:18:57.930Z,61.45
2022-09-01T05:23:06.363Z,61.92
2022-09-01T05:27:12.525Z,61.65
2022-09-01T05:31:19.651Z,61.26
2022-09-01T05:35:24.686Z,60.60
2022-09-01T05:39:38.351Z,60.21
2022-09-01T05:43:45.323Z,59.75
2022-09-01T05:47:48.855Z,58.76
2022-09-01T05:51:55.051Z,58.08
2022-09-01T05:55:59.894Z,57.92
2022-09-01T06:00:10.941Z,57.88
2022-09-01T06:04:16.076Z,57.96
2022-09-01T06:08:21.533Z,58.00
2022-09-01T06:12:26.847Z,58.25
2022-09-01T06:16:31.006Z,57.87
2022-09-01T06:20:33.870Z,57.58
2022-09-01T06:24:39.637Z,57.51
2022-09-01T06:28:43.634Z,57.10
2022-09-01T06:32:46.776Z,56.80
2022-09-01T06:36:51.721Z,55.71
2022-09-01T06:41:01.935Z,55.61
2022-09-01T06:45:10.296Z,54.93
2022-09-01T06:49:12.911Z,55.00
2022-09-01T06:53:34.439Z,54.61
2022-09-01T07:02:04.660Z,53.63
2022-09-01T07:07:00.118Z,53.46
2022-09-01T07:12:08.124Z,53.45
2022-09-01T07:20:24.755Z,52.34
2022-09-01T07:24:31.818Z,51.95
2022-09-01T07:29:13.326Z,51.61
2022-09-01T07:47:19.882Z,49.74
2022-09-01T07:51:40.776Z,49.09
2022-09-01T07:55:45.541Z,48.19
2022-09-01T07:59:50.375Z,47.79
2022-09-01T08:03:57.934Z,46.62
2022-09-01T08:08:01.118Z,46.72
2022-09-01T08:12:09.659Z,46.65
2022-09-01T08:16:17.848Z,46.40
2022-09-01T08:20:21.316Z,45.91
2022-09-01T08:24:26.889Z,45.58
2022-09-01T08:28:31.135Z,44.60
2022-09-01T08:32:34.426Z,43.85
2022-09-01T08:36:37.570Z,43.60
2022-09-01T08:40:42.814Z,42.78
2022-09-01T08:44:58.396Z,42.73
2022-09-01T08:49:24.260Z,41.90
2022-09-01T08:53:57.877Z,41.45
2022-09-01T08:58:04.812Z,40.98
2022-09-01T09:02:44.768Z,41.56
2022-09-01T09:06:56.052Z,41.78
2022-09-01T09:11:02.163Z,42.05
2022-09-01T09:15:21.874Z,41.97
2022-09-01T09:19:29.737Z,42.15
2022-09-01T09:23:40.343Z,41.80
2022-09-01T09:27:45.295Z,42.47
2022-09-01T09:31:50.687Z,41.74
2022-09-01T09:35:57.591Z,41.01
2022-09-01T09:40:12.083Z,39.97
2022-09-01T09:44:23.147Z,38.57
2022-09-01T09:48:30.628Z,38.08
2022-09-01T09:52:34.485Z,37.71
2022-09-01T09:56:37.219Z,37.79
2022-09-01T10:00:40.126Z,37.41
2022-09-01T10:04:44.195Z,36.75
2022-09-01T10:08:48.190Z,36.84
2022-09-01T10:12:50.828Z,36.33
2022-09-01T10:16:59.212Z,35.74
2022-09-01T10:21:04.363Z,34.66
2022-09-01T10:25:13.086Z,35.25
2022-09-01T10:29:20.995Z,34.55
2022-09-01T10:33:23.845Z,34.40
2022-09-01T10:37:27.722Z,34.04
2022-09-01T10:41:59.494Z,33.90
2022-09-01T10:46:15.703Z,33.41
2022-09-01T10:50:35.343Z,34.39
2022-09-01T10:54:57.883Z,34.25
2022-09-01T11:03:56.549Z,33.82
2022-09-01T11:08:01.501Z,33.99
2022-09-01T11:12:44.262Z,34.01
2022-09-01T11:17:16.958Z,33.66
2022-09-01T11:21:26.243Z,34.26
2022-09-01T11:25:39.224Z,34.43
2022-09-01T11:29:55.696Z,33.12
2022-09-01T11:34:20.864Z,33.02
2022-09-01T11:38:24.511Z,32.87
2022-09-01T11:42:30.611Z,33.06
2022-09-01T11:46:36.679Z,32.20
2022-09-01T11:50:42.928Z,32.36
2022-09-01T11:54:47.551Z,32.75
2022-09-01T11:58:50.113Z,32.06
2022-09-01T12:02:54.405Z,32.32
2022-09-01T12:07:02.290Z,32.89
2022-09-01T12:11:07.862Z,31.86
2022-09-01T12:15:18.898Z,31.74
2022-09-01T12:19:25.379Z,30.83
2022-09-01T12:23:31.621Z,29.74
2022-09-01T12:27:36.571Z,29.48
2022-09-01T12:31:43.080Z,29.77
2022-09-01T12:35:46.271Z,29.52
2022-09-01T12:39:52.089Z,29.53
2022-09-01T12:43:55.060Z,29.14
2022-09-01T12:47:58.843Z,29.33
2022-09-01T12:52:25.329Z,28.79
2022-09-01T12:56:31.874Z,29.50
2022-09-01T14:18:49.039Z,27.58
2022-09-01T14:22:53.016Z,27.93
2022-09-01T14:26:55.551Z,26.64
2022-09-01T14:35:00.917Z,27.44
2022-09-01T14:39:03.501Z,28.13
2022-09-01T14:43:09.684Z,28.67
2022-09-01T14:47:18.223Z,28.40
2022-09-01T14:51:26.946Z,29.35
2022-09-01T14:55:51.521Z,29.33
2022-09-01T14:59:57.735Z,29.17
2022-09-01T15:04:00.516Z,28.61
2022-09-01T15:08:04.572Z,28.56
2022-09-01T15:12:09.431Z,28.93
2022-09-01T15:20:37.502Z,27.34
2022-09-01T15:24:41.474Z,27.08
2022-09-01T15:28:44.785Z,27.25
2022-09-01T15:32:49.403Z,26.43
2022-09-01T15:36:51.955Z,26.04
2022-09-01T15:40:58.530Z,26.07
2022-09-01T15:45:01.509Z,26.17
2022-09-01T15:49:06.677Z,26.29
2022-09-01T15:53:13.120Z,25.49
2022-09-01T15:57:18.316Z,26.37
2022-09-01T16:01:22.290Z,26.43
2022-09-01T16:05:25.922Z,26.82
2022-09-01T16:09:29.126Z,27.64
2022-09-01T16:13:33.048Z,27.09
2022-09-01T16:17:49.290Z,27.47
2022-09-01T16:21:58.872Z,28.17
2022-09-01T16:26:01.920Z,27.34
2022-09-01T16:30:08.576Z,27.53
2022-09-01T16:34:18.156Z,27.46
2022-09-01T16:38:34.887Z,27.62
2022-09-01T16:42:46.954Z,27.86
2022-09-01T16:47:00.794Z,27.63
2022-09-01T16:51:12.657Z,27.89
2022-09-01T16:55:24.668Z,28.09
2022-09-01T16:59:38.249Z,28.88
2022-09-01T17:03:55.567Z,29.58
2022-09-01T17:08:07.706Z,30.00
2022-09-01T17:12:23.520Z,30.39
2022-09-01T17:16:30.674Z,30.99
2022-09-01T17:20:40.540Z,31.29
2022-09-01T17:24:46.168Z,31.18
2022-09-01T17:28:55.262Z,31.64
2022-09-01T17:33:12.124Z,32.16
2022-09-01T17:37:33.025Z,32.33
2022-09-01T17:41:39.580Z,32.76
2022-09-01T17:45:51.451Z,33.02
2022-09-01T17:49:59.716Z,33.52
2022-09-01T17:54:14.682Z,33.95
2022-09-01T17:58:32.430Z,34.04
2022-09-01T18:03:14.779Z,34.54
2022-09-01T18:07:34.921Z,34.66
2022-09-01T18:11:44.448Z,35.12
2022-09-01T18:15:52.534Z,35.11
2022-09-01T18:20:05.011Z,35.16
2022-09-01T18:24:16.529Z,35.68
2022-09-01T18:28:20.425Z,36.27
2022-09-01T18:32:35.123Z,36.82
2022-09-01T18:36:52.086Z,38.00
2022-09-01T18:41:10.334Z,38.74
2022-09-01T18:45:25.561Z,38.67
2022-09-01T18:49:34.970Z,39.44
2022-09-01T18:53:46.580Z,39.72
2022-09-01T18:57:54.446Z,39.30
2022-09-01T19:02:08.531Z,39.06
2022-09-01T19:06:24.177Z,39.47
2022-09-01T19:10:33.142Z,39.33
2022-09-01T19:14:43.287Z,38.74
2022-09-01T19:18:55.896Z,38.83
2022-09-01T19:23:03.453Z,38.56
2022-09-01T19:27:11.133Z,38.27
2022-09-01T19:31:22.117Z,38.47
2022-09-01T19:35:26.868Z,38.46
2022-09-01T19:39:31.870Z,38.59
2022-09-01T19:43:38.611Z,38.41
2022-09-01T19:47:48.248Z,38.94
2022-09-01T19:51:59.591Z,39.90
2022-09-01T19:56:08.623Z,40.29
2022-09-01T20:00:15.421Z,40.55
2022-09-01T20:04:27.747Z,40.95
2022-09-01T20:08:38.001Z,41.40
2022-09-01T20:12:48.499Z,41.94
2022-09-01T20:16:54.119Z,41.78
2022-09-01T20:21:00.448Z,42.29
2022-09-01T20:25:10.204Z,42.18
2022-09-01T20:29:19.292Z,42.30
2022-09-01T20:33:34.644Z,43.24
2022-09-01T20:37:39.914Z,43.95
2022-09-01T20:41:52.916Z,44.23
2022-09-01T20:45:55.522Z,44.40
2022-09-01T20:50:00.080Z,44.97
2022-09-01T20:54:24.411Z,45.21
2022-09-01T20:58:34.539Z,45.55
